Terminal Aerodrome Forecast
Issued by NWS Sioux Falls, SD

Home | Current Version | Previous Version | Text Only | Print | Product List | Glossary On
Versions: 1 2 3 4 5 6 7 8 9 10 11 12 13 14 15 16 17
000
FTUS43 KFSD 111120
TAFHON
TAF
KHON 111120Z 1112/1212 01007KT P6SM OVC012
     FM111700 31012KT P6SM BKN035
     FM112200 31014G22KT P6SM SCT035
     FM120300 27005KT P6SM SCT200
     FM120800 21004KT P6SM SCT120=

USA.gov is the U.S. government's official web portal to all federal, state and local government web resources and services.